Time;durP1;ratioP1;P1;durP2;ratioP2;P2;SDS_P1;SDS_P2;PMS_P1;PMS_P2;Temp;Humidity;BMP_temperature;BMP_pressure;BME280_temperature;BME280_humidity;BME280_pressure;Samples;Min_cycle;Max_cycle;Signal;HPM_P1;HPM_P2
2021/05/21 00:00:27;;;;;;;8.20;1.08;;;16.10;88.90;;;;;;5013228;28;20025;-75
2021/05/21 00:02:53;;;;;;;4.30;1.10;;;16.10;89.00;;;;;;5013214;28;20034;-85
2021/05/21 00:05:19;;;;;;;2.50;1.20;;;16.10;89.20;;;;;;5013118;28;20044;-85
2021/05/21 00:07:45;;;;;;;2.53;1.00;;;16.10;89.40;;;;;;5013057;28;20037;-77
2021/05/21 00:10:11;;;;;;;2.27;1.07;;;16.00;89.70;;;;;;5012998;28;20050;-75
2021/05/21 00:12:37;;;;;;;2.50;0.82;;;16.00;90.00;;;;;;5013291;28;20064;-85
2021/05/21 00:15:06;;;;;;;2.78;1.27;;;15.90;90.00;;;;;;4995649;28;20034;-76
2021/05/21 00:17:32;;;;;;;2.60;1.33;;;15.90;90.30;;;;;;5012917;28;20026;-84
2021/05/21 00:19:58;;;;;;;6.43;1.25;;;15.80;90.50;;;;;;5013014;28;20022;-77
2021/05/21 00:22:24;;;;;;;4.03;1.63;;;15.80;90.70;;;;;;5012820;28;20033;-85
2021/05/21 00:24:50;;;;;;;3.40;0.98;;;15.70;90.60;;;;;;5013018;28;20034;-83
2021/05/21 00:27:16;;;;;;;3.05;0.93;;;15.70;90.70;;;;;;5012983;28;20049;-84
2021/05/21 00:29:43;;;;;;;3.15;1.40;;;15.60;90.90;;;;;;5013086;28;20418;-78
2021/05/21 00:32:09;;;;;;;5.90;1.27;;;15.70;90.70;;;;;;5016013;28;20402;-84
2021/05/21 00:34:35;;;;;;;1.27;0.80;;;15.60;90.70;;;;;;5016818;28;20498;-84
2021/05/21 00:37:01;;;;;;;3.28;1.30;;;15.60;90.50;;;;;;5017006;28;20033;-84
2021/05/21 00:39:27;;;;;;;1.75;0.82;;;15.60;90.60;;;;;;5016892;28;20030;-85
2021/05/21 00:41:53;;;;;;;7.25;1.67;;;15.60;90.60;;;;;;5016748;28;20041;-84
2021/05/21 00:44:19;;;;;;;9.30;1.15;;;15.60;90.70;;;;;;5016566;28;20410;-76
2021/05/21 00:46:45;;;;;;;3.33;1.10;;;15.60;90.60;;;;;;5017456;28;20026;-75
2021/05/21 00:49:11;;;;;;;4.10;1.17;;;15.60;90.50;;;;;;5023207;28;20030;-84
2021/05/21 00:51:37;;;;;;;2.05;0.90;;;15.50;90.00;;;;;;5016662;28;20430;-75
2021/05/21 00:54:03;;;;;;;4.47;1.00;;;15.60;89.60;;;;;;5016295;28;20368;-75
2021/05/21 00:56:32;;;;;;;3.80;1.35;;;15.60;89.20;;;;;;5016646;28;20032;-78
2021/05/21 00:58:58;;;;;;;4.13;1.10;;;15.70;88.80;;;;;;5016525;28;20057;-85
2021/05/21 01:01:29;;;;;;;1.73;1.00;;;15.70;88.60;;;;;;5016321;28;20045;-78
2021/05/21 01:03:55;;;;;;;1.33;1.00;;;15.80;88.50;;;;;;4998749;28;20053;-81
2021/05/21 01:06:21;;;;;;;3.83;1.30;;;15.80;88.60;;;;;;5016058;28;20018;-75
2021/05/21 01:08:47;;;;;;;4.45;1.00;;;15.80;88.00;;;;;;5016052;28;20034;-75
2021/05/21 01:11:13;;;;;;;2.83;0.93;;;15.70;87.50;;;;;;5016177;28;20038;-75
2021/05/21 01:13:38;;;;;;;2.20;0.98;;;15.80;87.00;;;;;;5016006;28;20433;-76
2021/05/21 01:16:05;;;;;;;7.93;1.77;;;15.80;86.90;;;;;;5016003;28;20022;-78
2021/05/21 01:18:31;;;;;;;1.73;1.00;;;15.80;87.00;;;;;;5015996;28;20311;-84
2021/05/21 01:20:57;;;;;;;4.35;1.63;;;15.80;87.20;;;;;;5015947;28;20069;-85
2021/05/21 01:23:23;;;;;;;3.67;1.05;;;15.80;87.40;;;;;;5015796;28;20038;-84
2021/05/21 01:25:49;;;;;;;3.23;1.20;;;15.80;87.60;;;;;;5016022;28;20037;-79
2021/05/21 01:28:16;;;;;;;2.65;1.48;;;15.80;88.00;;;;;;5015834;28;20273;-75
2021/05/21 01:30:43;;;;;;;3.30;1.40;;;15.80;88.10;;;;;;5015724;28;20028;-75
2021/05/21 01:33:11;;;;;;;3.83;1.60;;;15.70;88.40;;;;;;5015834;28;20061;-85
2021/05/21 01:35:39;;;;;;;6.03;1.20;;;15.70;89.30;;;;;;5015893;28;20030;-75
2021/05/21 01:38:06;;;;;;;8.00;1.35;;;15.70;89.00;;;;;;5015577;28;20060;-76
2021/05/21 01:40:32;;;;;;;3.40;1.75;;;15.70;89.20;;;;;;5015581;28;20026;-81
2021/05/21 01:43:00;;;;;;;3.30;1.33;;;15.60;89.30;;;;;;5014730;28;20034;-81
2021/05/21 01:45:27;;;;;;;3.38;1.23;;;15.60;89.40;;;;;;5015640;28;20049;-77
2021/05/21 01:47:53;;;;;;;1.58;1.20;;;15.60;89.10;;;;;;5015526;28;20021;-76
2021/05/21 01:50:19;;;;;;;2.55;1.30;;;15.60;89.10;;;;;;5015414;28;20026;-81
2021/05/21 01:52:46;;;;;;;6.45;1.40;;;15.70;89.10;;;;;;5015501;28;20068;-84
2021/05/21 01:55:13;;;;;;;3.08;1.23;;;15.60;89.10;;;;;;5015195;28;20026;-75
2021/05/21 01:57:40;;;;;;;2.90;0.90;;;15.60;89.30;;;;;;5017290;28;20057;-76
2021/05/21 02:00:09;;;;;;;5.32;1.20;;;15.60;89.30;;;;;;5023062;28;20026;-75
2021/05/21 02:02:39;;;;;;;2.60;1.30;;;15.60;89.30;;;;;;5015138;28;20475;-75
2021/05/21 02:05:06;;;;;;;3.70;1.05;;;15.60;89.30;;;;;;5015284;28;20025;-83
2021/05/21 02:07:34;;;;;;;2.72;1.25;;;15.60;89.20;;;;;;5015017;28;20547;-84
2021/05/21 02:10:03;;;;;;;2.78;1.17;;;15.50;88.80;;;;;;5014619;28;20053;-79
2021/05/21 02:12:31;;;;;;;3.20;1.50;;;15.50;88.50;;;;;;5015079;28;20033;-78
2021/05/21 02:15:07;;;;;;;4.18;1.65;;;15.50;88.30;;;;;;5015047;28;20398;-75
2021/05/21 02:17:34;;;;;;;4.72;1.60;;;15.60;88.20;;;;;;5014959;28;20041;-84
2021/05/21 02:20:01;;;;;;;3.78;2.08;;;15.50;88.30;;;;;;5014846;28;20045;-84
2021/05/21 02:22:28;;;;;;;2.72;1.20;;;15.50;88.40;;;;;;5014823;28;20498;-84
2021/05/21 02:24:56;;;;;;;4.85;1.65;;;15.50;88.70;;;;;;5014815;28;20483;-84
2021/05/21 02:27:23;;;;;;;5.70;2.00;;;15.50;88.80;;;;;;5014703;28;20340;-75
2021/05/21 02:29:49;;;;;;;8.75;2.47;;;15.50;89.10;;;;;;5014869;28;20108;-84
2021/05/21 02:32:15;;;;;;;5.07;2.03;;;15.40;89.20;;;;;;5014883;28;20037;-84
2021/05/21 02:34:41;;;;;;;4.00;1.75;;;15.40;89.50;;;;;;5014583;28;20037;-78
2021/05/21 02:37:08;;;;;;;1.98;1.70;;;15.40;89.60;;;;;;5014413;28;20030;-84
2021/05/21 02:39:34;;;;;;;2.95;1.70;;;15.40;89.80;;;;;;5014483;28;20049;-84
2021/05/21 02:42:00;;;;;;;2.38;1.67;;;15.40;89.90;;;;;;5014242;28;20397;-77
2021/05/21 02:44:26;;;;;;;3.17;1.35;;;15.40;90.00;;;;;;5014295;28;20041;-75
2021/05/21 02:46:52;;;;;;;3.58;1.52;;;15.40;90.10;;;;;;5014576;28;20018;-75
2021/05/21 02:49:20;;;;;;;2.80;1.27;;;15.50;90.10;;;;;;5014235;28;20041;-75
2021/05/21 02:51:48;;;;;;;1.40;1.30;;;15.50;90.10;;;;;;5014466;28;20018;-83
2021/05/21 02:54:14;;;;;;;6.35;1.85;;;15.50;90.20;;;;;;5014016;28;20368;-84
2021/05/21 02:56:40;;;;;;;4.35;2.03;;;15.50;90.30;;;;;;5014237;28;20026;-75
2021/05/21 02:59:06;;;;;;;4.43;1.30;;;15.50;90.30;;;;;;5014034;28;20044;-80
2021/05/21 03:01:33;;;;;;;4.80;1.92;;;15.40;90.20;;;;;;5014294;28;20108;-82
2021/05/21 03:03:59;;;;;;;2.80;1.65;;;15.40;90.30;;;;;;5013959;28;20041;-83
2021/05/21 03:06:25;;;;;;;3.28;1.50;;;15.40;90.30;;;;;;5013948;28;20030;-80
2021/05/21 03:08:51;;;;;;;5.17;1.60;;;15.40;90.30;;;;;;5020012;28;20034;-76
2021/05/21 03:11:17;;;;;;;7.30;1.88;;;15.40;90.30;;;;;;4999638;28;20281;-83
2021/05/21 03:13:44;;;;;;;3.13;1.55;;;15.40;90.40;;;;;;5013747;28;20117;-83
2021/05/21 03:16:11;;;;;;;3.85;1.50;;;15.40;90.50;;;;;;5013676;28;20026;-81
2021/05/21 03:18:37;;;;;;;4.13;1.73;;;15.40;90.60;;;;;;5013869;28;20391;-75
2021/05/21 03:21:03;;;;;;;4.38;1.48;;;15.50;90.70;;;;;;5013650;28;20039;-75
2021/05/21 03:23:29;;;;;;;4.72;1.40;;;15.50;90.60;;;;;;5013486;28;20570;-75
2021/05/21 03:25:55;;;;;;;5.43;1.42;;;15.50;90.50;;;;;;5013647;28;20080;-84
2021/05/21 03:28:21;;;;;;;2.30;1.42;;;15.50;90.30;;;;;;5013467;28;20026;-75
2021/05/21 03:30:47;;;;;;;2.92;1.35;;;15.50;90.40;;;;;;5013572;28;20025;-83
2021/05/21 03:33:13;;;;;;;4.80;1.30;;;15.50;90.50;;;;;;5013692;28;20037;-76
2021/05/21 03:35:39;;;;;;;2.55;1.27;;;15.50;90.50;;;;;;4995986;28;20506;-84
2021/05/21 03:38:06;;;;;;;4.93;1.15;;;15.50;90.30;;;;;;5013418;28;20038;-83
2021/05/21 03:40:33;;;;;;;3.17;1.38;;;15.50;90.00;;;;;;5013258;28;20040;-84
2021/05/21 03:42:59;;;;;;;3.42;0.90;;;15.50;89.90;;;;;;5013264;28;20066;-76
2021/05/21 03:45:25;;;;;;;1.88;1.20;;;15.50;89.40;;;;;;5013342;28;20455;-76
2021/05/21 03:47:51;;;;;;;3.63;1.25;;;15.50;89.40;;;;;;5013454;28;20495;-75
2021/05/21 03:50:20;;;;;;;1.48;0.80;;;15.50;89.30;;;;;;5013358;28;20080;-83
2021/05/21 03:52:47;;;;;;;2.20;1.13;;;15.50;89.10;;;;;;5013312;28;20030;-80
2021/05/21 03:55:15;;;;;;;2.65;0.77;;;15.50;89.30;;;;;;5013182;28;20132;-84
2021/05/21 03:57:41;;;;;;;1.25;0.93;;;15.60;89.40;;;;;;5013154;28;20022;-84
2021/05/21 04:00:10;;;;;;;3.83;1.00;;;15.60;89.70;;;;;;5013048;28;20022;-76
2021/05/21 04:02:36;;;;;;;5.30;1.63;;;15.60;89.80;;;;;;5013135;28;20475;-84
2021/05/21 04:05:04;;;;;;;1.77;1.15;;;15.60;90.10;;;;;;5012651;28;20080;-77
2021/05/21 04:07:30;;;;;;;2.03;1.25;;;15.70;90.20;;;;;;5013098;28;20071;-85
2021/05/21 04:09:56;;;;;;;9.05;2.03;;;15.70;90.40;;;;;;5013018;28;20053;-75
2021/05/21 04:12:25;;;;;;;6.97;1.60;;;15.70;90.60;;;;;;5013006;28;20036;-83
2021/05/21 04:14:51;;;;;;;1.75;1.20;;;15.70;90.70;;;;;;5013005;28;20386;-84
2021/05/21 04:17:17;;;;;;;1.67;1.00;;;15.70;90.90;;;;;;5012807;28;20030;-75
2021/05/21 04:19:43;;;;;;;4.03;1.58;;;15.80;91.00;;;;;;5015904;28;20083;-80
2021/05/21 04:22:08;;;;;;;4.13;1.58;;;15.80;91.10;;;;;;5018847;28;20113;-77
2021/05/21 04:24:34;;;;;;;2.00;1.00;;;15.80;91.30;;;;;;5013105;28;20657;-83
2021/05/21 04:27:00;;;;;;;1.63;0.83;;;15.90;91.40;;;;;;5013007;28;20038;-84
2021/05/21 04:29:26;;;;;;;2.43;1.10;;;15.90;91.20;;;;;;5012785;28;20769;-75
2021/05/21 04:31:52;;;;;;;2.15;1.02;;;16.00;91.20;;;;;;5012661;28;20022;-75
2021/05/21 04:34:18;;;;;;;3.07;1.30;;;16.00;91.10;;;;;;5012663;28;20085;-84
2021/05/21 04:36:43;;;;;;;2.30;0.95;;;16.10;91.00;;;;;;5012778;28;20284;-82
2021/05/21 04:39:09;;;;;;;2.83;1.80;;;16.10;90.70;;;;;;5012656;28;20100;-78
2021/05/21 04:41:35;;;;;;;2.67;1.10;;;16.20;90.70;;;;;;5012666;28;20343;-83
2021/05/21 04:44:01;;;;;;;2.08;0.80;;;16.20;90.60;;;;;;5012408;28;20296;-84
2021/05/21 04:46:27;;;;;;;2.45;1.00;;;16.20;90.60;;;;;;5012674;28;20026;-75
2021/05/21 04:48:53;;;;;;;1.88;0.88;;;16.30;90.90;;;;;;5012668;28;20414;-80
2021/05/21 04:51:20;;;;;;;5.00;1.30;;;16.40;91.00;;;;;;5012659;28;20356;-84
2021/05/21 04:53:45;;;;;;;3.35;1.35;;;16.40;91.50;;;;;;5012546;28;20026;-76
2021/05/21 04:56:12;;;;;;;9.10;1.87;;;16.40;91.40;;;;;;5012597;28;20033;-84
2021/05/21 04:58:38;;;;;;;1.35;0.82;;;16.50;91.70;;;;;;5012537;28;20343;-84
2021/05/21 05:01:04;;;;;;;3.53;1.08;;;16.50;91.80;;;;;;5012541;28;20018;-76
2021/05/21 05:03:30;;;;;;;2.28;1.10;;;16.50;91.90;;;;;;5012465;28;20093;-81
2021/05/21 05:05:56;;;;;;;4.10;1.33;;;16.60;92.00;;;;;;5012801;28;20026;-84
2021/05/21 05:08:23;;;;;;;5.53;1.10;;;16.70;92.00;;;;;;5012562;28;20390;-82
2021/05/21 05:10:49;;;;;;;3.55;1.35;;;16.70;92.00;;;;;;5012516;28;20068;-76
2021/05/21 05:13:16;;;;;;;4.53;0.98;;;16.80;92.00;;;;;;4994832;28;20479;-75
2021/05/21 05:15:43;;;;;;;2.22;1.30;;;16.80;92.10;;;;;;5012447;28;20081;-84
2021/05/21 05:18:09;;;;;;;4.40;1.13;;;16.80;92.40;;;;;;5013626;28;20056;-85
2021/05/21 05:20:35;;;;;;;4.60;1.63;;;16.90;92.20;;;;;;5015951;28;20105;-82
2021/05/21 05:23:02;;;;;;;6.33;1.43;;;16.90;91.90;;;;;;5015943;28;20120;-83
2021/05/21 05:25:28;;;;;;;4.88;1.17;;;16.90;91.80;;;;;;5016016;28;20264;-75
2021/05/21 05:27:55;;;;;;;5.60;1.67;;;16.90;91.50;;;;;;5015995;28;20026;-83
2021/05/21 05:30:22;;;;;;;5.03;1.13;;;16.80;91.70;;;;;;5020424;28;20030;-76
2021/05/21 05:32:48;;;;;;;2.85;1.08;;;16.80;91.90;;;;;;5016945;28;20026;-78
2021/05/21 05:35:14;;;;;;;1.92;0.98;;;16.90;91.40;;;;;;5015682;28;20026;-84
2021/05/21 05:37:41;;;;;;;5.88;1.77;;;16.90;91.30;;;;;;5015927;28;20022;-75
2021/05/21 05:40:08;;;;;;;2.70;1.50;;;16.90;91.30;;;;;;5015813;28;20064;-82
2021/05/21 05:42:34;;;;;;;5.10;1.13;;;17.00;91.30;;;;;;5015696;28;20390;-85
2021/05/21 05:45:00;;;;;;;4.90;1.58;;;17.10;91.50;;;;;;5015364;28;20530;-75
2021/05/21 05:47:26;;;;;;;2.75;0.80;;;17.10;91.20;;;;;;5015501;28;20022;-81
2021/05/21 05:49:52;;;;;;;4.67;1.87;;;17.10;91.60;;;;;;5015326;28;20530;-77
2021/05/21 05:52:18;;;;;;;4.43;1.17;;;17.10;91.70;;;;;;5015339;28;20941;-75
2021/05/21 05:54:44;;;;;;;2.10;0.68;;;17.10;91.20;;;;;;5015617;28;20293;-75
2021/05/21 05:57:10;;;;;;;2.80;1.15;;;17.10;91.10;;;;;;5015279;28;20108;-76
2021/05/21 05:59:36;;;;;;;4.40;0.90;;;17.10;91.20;;;;;;5015251;28;20468;-82
2021/05/21 06:02:02;;;;;;;6.47;1.27;;;17.20;91.10;;;;;;5015210;28;20061;-82
2021/05/21 06:04:28;;;;;;;6.30;1.10;;;17.20;90.50;;;;;;5014935;28;20045;-79
2021/05/21 06:06:54;;;;;;;5.13;1.33;;;17.30;90.60;;;;;;5015309;28;20025;-75
2021/05/21 06:09:20;;;;;;;5.65;1.15;;;17.30;90.10;;;;;;5014882;28;20041;-76
2021/05/21 06:11:46;;;;;;;2.03;1.15;;;17.40;89.20;;;;;;5015157;28;20072;-85
2021/05/21 06:14:12;;;;;;;3.80;0.80;;;17.40;88.10;;;;;;5014965;28;20160;-75
2021/05/21 06:16:38;;;;;;;3.20;0.88;;;17.40;87.10;;;;;;5015022;28;20536;-77
2021/05/21 06:19:03;;;;;;;7.90;1.47;;;17.40;84.70;;;;;;5014965;28;20113;-85
2021/05/21 06:21:30;;;;;;;4.68;1.58;;;17.50;86.00;;;;;;5015168;28;20296;-75
2021/05/21 06:23:56;;;;;;;4.53;1.52;;;17.50;86.70;;;;;;5015043;28;20056;-82
2021/05/21 06:28:51;;;;;;;2.88;1.25;;;17.70;83.30;;;;;;5014317;28;20467;-84
2021/05/21 06:31:17;;;;;;;4.43;1.52;;;17.70;81.90;;;;;;5014680;28;20026;-77
2021/05/21 06:33:43;;;;;;;2.83;1.15;;;17.70;84.60;;;;;;5014555;28;20116;-82
2021/05/21 06:36:10;;;;;;;4.15;1.40;;;17.80;83.10;;;;;;5014569;28;20049;-83
2021/05/21 06:38:36;;;;;;;2.17;0.88;;;17.80;84.60;;;;;;5014632;28;20033;-84
2021/05/21 06:41:02;;;;;;;2.13;1.00;;;17.80;84.20;;;;;;5017044;28;20030;-76
2021/05/21 06:43:29;;;;;;;4.53;1.25;;;17.80;83.10;;;;;;5020270;28;20037;-77
2021/05/21 06:45:55;;;;;;;4.38;1.10;;;17.80;82.10;;;;;;5014450;28;20081;-75
2021/05/21 06:48:21;;;;;;;1.77;1.00;;;17.90;83.00;;;;;;5014182;28;20087;-75
2021/05/21 06:50:48;;;;;;;2.90;1.45;;;18.00;83.80;;;;;;5014481;28;20112;-80
2021/05/21 06:53:14;;;;;;;4.00;1.10;;;18.10;84.00;;;;;;5014346;28;20040;-77
2021/05/21 06:55:40;;;;;;;3.90;0.80;;;18.30;84.20;;;;;;5014374;28;20030;-84
2021/05/21 06:58:06;;;;;;;2.25;1.25;;;18.30;81.00;;;;;;5014137;28;20399;-86
2021/05/21 07:00:36;;;;;;;2.78;1.40;;;18.20;80.40;;;;;;5014212;28;20032;-76
2021/05/21 07:03:02;;;;;;;1.85;0.90;;;18.30;79.80;;;;;;5014198;28;20037;-75
2021/05/21 07:05:27;;;;;;;2.67;1.10;;;18.40;79.50;;;;;;5013985;28;20481;-84
2021/05/21 07:07:53;;;;;;;1.70;0.85;;;18.30;79.10;;;;;;5014052;28;20034;-83
2021/05/21 07:10:19;;;;;;;1.60;1.17;;;18.30;80.60;;;;;;5013933;28;20045;-81
2021/05/21 07:12:45;;;;;;;3.55;1.65;;;18.30;82.70;;;;;;5014284;28;20030;-86
2021/05/21 07:15:11;;;;;;;1.53;1.30;;;18.50;82.70;;;;;;5013925;28;20034;-79
2021/05/21 07:17:38;;;;;;;3.92;0.90;;;18.60;83.00;;;;;;5013786;28;20353;-75
2021/05/21 07:20:05;;;;;;;3.83;0.98;;;18.60;82.20;;;;;;5013912;28;20029;-76
2021/05/21 07:22:31;;;;;;;4.95;0.98;;;18.60;81.80;;;;;;5013690;28;20175;-84
2021/05/21 07:24:57;;;;;;;1.47;0.83;;;18.70;81.50;;;;;;5013745;28;20034;-75
2021/05/21 07:27:23;;;;;;;1.83;0.98;;;18.70;79.80;;;;;;5013909;28;20279;-85
2021/05/21 07:29:49;;;;;;;2.97;1.60;;;18.70;79.00;;;;;;5013710;28;20068;-85
2021/05/21 07:32:15;;;;;;;2.73;1.07;;;18.70;78.60;;;;;;5013723;28;20096;-85
2021/05/21 07:34:41;;;;;;;2.10;0.87;;;18.70;78.50;;;;;;5013734;28;20701;-84
2021/05/21 07:37:07;;;;;;;5.40;1.00;;;18.70;82.20;;;;;;5013731;28;20269;-79
2021/05/21 07:39:33;;;;;;;2.45;1.08;;;18.80;82.00;;;;;;5013505;28;20277;-84
2021/05/21 07:41:59;;;;;;;6.57;2.47;;;18.90;81.60;;;;;;5013003;28;20382;-83
2021/05/21 07:44:26;;;;;;;2.38;1.02;;;18.80;78.20;;;;;;5013331;28;20297;-84
2021/05/21 07:46:52;;;;;;;2.95;1.10;;;18.80;80.80;;;;;;4995841;28;20108;-84
2021/05/21 07:49:22;;;;;;;2.08;1.40;;;18.90;79.70;;;;;;5013143;28;20061;-80
2021/05/21 07:51:50;;;;;;;3.80;1.45;;;18.90;82.90;;;;;;5017680;28;20110;-81
2021/05/21 07:54:16;;;;;;;5.72;1.48;;;18.90;82.10;;;;;;5021929;28;20026;-85
2021/05/21 07:56:43;;;;;;;2.25;1.30;;;18.90;82.00;;;;;;5013190;28;20065;-75
2021/05/21 07:59:11;;;;;;;5.28;1.25;;;18.90;80.70;;;;;;5013472;28;20026;-78
2021/05/21 08:01:38;;;;;;;7.63;1.10;;;18.90;82.70;;;;;;5013497;28;20092;-84
2021/05/21 08:04:04;;;;;;;1.02;0.80;;;19.00;81.30;;;;;;5012971;28;20033;-78
2021/05/21 08:06:30;;;;;;;2.78;1.17;;;19.00;81.60;;;;;;5013171;28;20030;-84
2021/05/21 08:08:56;;;;;;;1.73;0.98;;;19.00;81.00;;;;;;5012819;28;20038;-75
2021/05/21 08:11:22;;;;;;;3.97;1.42;;;19.00;79.80;;;;;;5012977;28;20475;-84
2021/05/21 08:13:48;;;;;;;2.70;1.03;;;18.90;80.60;;;;;;5013109;28;20103;-83
2021/05/21 08:16:14;;;;;;;2.30;0.93;;;18.90;82.90;;;;;;5013320;28;20698;-75
2021/05/21 08:18:40;;;;;;;4.35;1.60;;;18.90;81.90;;;;;;4995454;28;20037;-74
2021/05/21 08:21:07;;;;;;;1.30;0.73;;;19.00;82.60;;;;;;4995305;28;20424;-84
2021/05/21 08:23:34;;;;;;;4.38;2.13;;;19.10;80.00;;;;;;5012992;28;20124;-83
2021/05/21 08:26:00;;;;;;;3.40;1.50;;;19.10;80.00;;;;;;5013079;28;20467;-84
2021/05/21 08:28:26;;;;;;;2.30;1.67;;;19.10;79.00;;;;;;5012854;28;20041;-84
2021/05/21 08:30:53;;;;;;;1.67;1.05;;;19.20;80.70;;;;;;5013051;28;20034;-85
2021/05/21 08:33:20;;;;;;;3.13;1.40;;;19.30;80.30;;;;;;5012833;28;20498;-85
2021/05/21 08:35:47;;;;;;;5.60;1.85;;;19.40;79.20;;;;;;5012970;28;20022;-85
2021/05/21 08:38:14;;;;;;;3.60;1.33;;;19.50;78.70;;;;;;5012767;28;20052;-85
2021/05/21 08:40:40;;;;;;;2.08;1.13;;;19.60;79.60;;;;;;5012829;28;20533;-84
2021/05/21 08:43:09;;;;;;;5.95;1.98;;;19.80;79.70;;;;;;5012862;28;20030;-84
2021/05/21 08:45:35;;;;;;;3.53;1.40;;;19.80;79.40;;;;;;5012890;28;20073;-85
2021/05/21 08:48:02;;;;;;;4.20;1.85;;;19.80;79.60;;;;;;5012797;28;20022;-85
2021/05/21 08:50:29;;;;;;;1.15;1.00;;;19.80;79.80;;;;;;5012647;28;20382;-85
2021/05/21 08:52:55;;;;;;;1.92;1.60;;;20.00;76.90;;;;;;5015473;28;20022;-77
2021/05/21 08:55:21;;;;;;;2.30;1.40;;;19.90;77.50;;;;;;5016533;28;20048;-85
2021/05/21 08:57:47;;;;;;;6.68;1.25;;;19.90;78.20;;;;;;5016564;28;20029;-84
2021/05/21 09:00:14;;;;;;;1.57;1.10;;;20.10;79.40;;;;;;5016476;28;20470;-85
2021/05/21 09:02:40;;;;;;;1.55;0.90;;;20.10;76.30;;;;;;5021986;28;20060;-75
2021/05/21 09:05:08;;;;;;;3.55;1.42;;;19.90;76.40;;;;;;5019822;28;20030;-77
2021/05/21 09:07:36;;;;;;;2.05;1.30;;;19.90;76.10;;;;;;5016413;28;20033;-84
2021/05/21 09:10:09;;;;;;;2.15;1.02;;;20.10;75.60;;;;;;5016014;28;20053;-85
2021/05/21 09:12:39;;;;;;;2.63;1.00;;;20.30;74.40;;;;;;5016168;28;20034;-84
2021/05/21 09:15:15;;;;;;;1.10;0.95;;;20.40;74.30;;;;;;5015971;28;20371;-85
2021/05/21 09:18:00;;;;;;;1.60;0.98;;;20.50;74.50;;;;;;4998705;28;20030;-81
2021/05/21 09:20:39;;;;;;;2.35;0.85;;;20.70;72.70;;;;;;5016137;28;20030;-84
2021/05/21 09:23:31;;;;;;;2.40;1.73;;;20.70;73.20;;;;;;5015996;28;20068;-75
2021/05/21 09:25:57;;;;;;;2.72;1.00;;;20.60;72.60;;;;;;5013997;28;20046;-84
2021/05/21 09:28:34;;;;;;;3.87;1.40;;;20.60;73.60;;;;;;5015874;28;20022;-82
2021/05/21 09:31:13;;;;;;;2.72;1.17;;;20.70;73.70;;;;;;5015934;28;20030;-84
2021/05/21 09:33:48;;;;;;;12.75;1.63;;;20.80;74.50;;;;;;5015801;28;20571;-75
2021/05/21 09:36:24;;;;;;;2.70;1.27;;;20.90;73.00;;;;;;5015780;28;20040;-84
2021/05/21 09:38:55;;;;;;;1.42;1.10;;;20.80;72.50;;;;;;5015761;28;20021;-84
2021/05/21 09:41:24;;;;;;;3.72;1.30;;;20.80;71.30;;;;;;5015792;28;20026;-84
2021/05/21 09:43:51;;;;;;;1.48;1.05;;;20.80;72.50;;;;;;5015643;28;20417;-84
2021/05/21 09:46:17;;;;;;;2.53;1.20;;;20.80;73.10;;;;;;5015440;28;20104;-83
2021/05/21 09:48:43;;;;;;;3.75;1.30;;;21.00;71.60;;;;;;5015724;28;20025;-85
2021/05/21 09:51:11;;;;;;;3.05;1.17;;;21.10;72.70;;;;;;5015455;28;20026;-75
2021/05/21 09:53:37;;;;;;;1.58;1.20;;;21.20;71.30;;;;;;4998033;28;20025;-84
2021/05/21 09:56:16;;;;;;;1.83;1.10;;;21.50;71.60;;;;;;5015251;28;20101;-75
2021/05/21 09:58:44;;;;;;;2.15;1.10;;;21.70;69.70;;;;;;5015244;28;20501;-80
2021/05/21 10:01:18;;;;;;;4.03;1.10;;;21.80;69.70;;;;;;5015043;28;20107;-84
2021/05/21 10:03:46;;;;;;;2.08;1.27;;;21.80;68.60;;;;;;5014576;28;20073;-85
2021/05/21 10:06:12;;;;;;;1.00;0.82;;;21.70;68.60;;;;;;5015301;28;20491;-76
2021/05/21 10:08:39;;;;;;;1.50;0.90;;;21.80;68.30;;;;;;5015355;28;20034;-75
2021/05/21 10:11:06;;;;;;;2.17;0.80;;;21.90;69.70;;;;;;5015047;28;20054;-84
2021/05/21 10:13:33;;;;;;;3.83;1.40;;;21.90;70.00;;;;;;5018986;28;20048;-75
2021/05/21 10:15:59;;;;;;;3.42;1.00;;;21.90;68.90;;;;;;5017784;28;20048;-75
2021/05/21 10:18:27;;;;;;;2.63;1.05;;;22.10;68.40;;;;;;5015204;28;20133;-85
2021/05/21 10:20:55;;;;;;;1.42;0.95;;;22.10;68.50;;;;;;5015014;28;20037;-84
2021/05/21 10:23:25;;;;;;;3.78;1.40;;;21.90;68.20;;;;;;5014642;28;20467;-75
2021/05/21 10:25:55;;;;;;;6.00;1.35;;;21.90;69.20;;;;;;5014736;28;20034;-85
2021/05/21 10:28:28;;;;;;;2.97;0.93;;;21.90;69.20;;;;;;5014637;28;20490;-81
2021/05/21 10:31:01;;;;;;;0.77;0.75;;;22.00;69.70;;;;;;5014641;28;20084;-76
2021/05/21 10:33:32;;;;;;;2.45;1.85;;;22.20;68.00;;;;;;5014876;28;20494;-84
2021/05/21 10:36:16;;;;;;;2.53;1.08;;;22.30;67.60;;;;;;5015084;28;20109;-76
2021/05/21 10:39:18;;;;;;;1.63;1.20;;;22.60;68.00;;;;;;5014702;28;20129;-79
2021/05/21 10:42:21;;;;;;;1.88;1.15;;;22.50;67.60;;;;;;5014770;28;20036;-85
2021/05/21 10:45:20;;;;;;;3.47;1.00;;;22.70;67.00;;;;;;5014719;28;20068;-84
2021/05/21 10:47:55;;;;;;;5.15;1.25;;;22.70;66.60;;;;;;4997045;28;20372;-79
2021/05/21 10:50:21;;;;;;;3.38;1.05;;;22.80;67.70;;;;;;5014645;28;20033;-77
2021/05/21 10:52:50;;;;;;;1.30;1.10;;;22.70;66.20;;;;;;5014445;28;20034;-84
2021/05/21 10:55:17;;;;;;;1.17;1.08;;;22.60;66.30;;;;;;5014306;28;20030;-75
2021/05/21 10:58:00;;;;;;;1.52;1.00;;;22.50;66.20;;;;;;5014065;28;20030;-75
2021/05/21 11:00:26;;;;;;;2.25;1.27;;;22.50;66.90;;;;;;5014334;28;20116;-85
2021/05/21 11:02:54;;;;;;;3.28;1.08;;;22.70;66.10;;;;;;5014139;28;20026;-85
2021/05/21 11:05:20;;;;;;;2.78;1.00;;;22.90;67.10;;;;;;5013995;28;20556;-80
2021/05/21 11:07:45;;;;;;;3.65;1.25;;;22.80;65.20;;;;;;5014091;28;20069;-85
2021/05/21 11:10:34;;;;;;;2.03;1.20;;;22.70;66.90;;;;;;5013885;28;20496;-85
2021/05/21 11:13:10;;;;;;;1.52;1.10;;;22.90;65.70;;;;;;5014056;28;20352;-74
2021/05/21 11:15:40;;;;;;;2.55;1.10;;;23.00;66.30;;;;;;5013975;28;20030;-75
2021/05/21 11:18:25;;;;;;;1.92;1.50;;;22.80;67.70;;;;;;4996502;28;20383;-75
2021/05/21 11:21:08;;;;;;;2.95;1.60;;;23.00;67.90;;;;;;4996288;28;20394;-85
2021/05/21 11:23:36;;;;;;;1.63;1.17;;;23.10;65.20;;;;;;5015311;28;20091;-76
2021/05/21 11:26:21;;;;;;;1.42;0.95;;;23.00;65.90;;;;;;5007040;28;20276;-84
2021/05/21 11:28:57;;;;;;;1.70;1.30;;;23.20;66.90;;;;;;5013936;28;20176;-79
2021/05/21 11:31:29;;;;;;;2.88;1.20;;;23.40;65.70;;;;;;5013697;28;20104;-84
2021/05/21 11:33:59;;;;;;;2.15;1.40;;;23.20;64.70;;;;;;5013625;28;20036;-85
2021/05/21 11:36:45;;;;;;;2.30;1.77;;;23.30;64.90;;;;;;5013509;28;20029;-84
2021/05/21 11:39:11;;;;;;;2.78;1.90;;;23.20;66.90;;;;;;5011834;28;20112;-84
2021/05/21 11:41:43;;;;;;;1.47;1.37;;;23.10;65.50;;;;;;5013499;28;20168;-85
2021/05/21 11:44:10;;;;;;;4.25;1.83;;;23.20;64.90;;;;;;5013553;28;20056;-81
2021/05/21 11:46:43;;;;;;;7.95;2.28;;;23.40;63.90;;;;;;5013333;28;20026;-76
2021/05/21 11:49:12;;;;;;;3.35;2.00;;;23.30;63.70;;;;;;5013386;28;20044;-75
2021/05/21 11:51:38;;;;;;;2.60;1.90;;;23.20;64.10;;;;;;5013493;28;20065;-76
2021/05/21 11:54:05;;;;;;;2.50;1.77;;;23.30;63.90;;;;;;5013160;28;20117;-77
2021/05/21 11:56:40;;;;;;;1.90;1.30;;;23.50;64.70;;;;;;5013173;28;20060;-76
2021/05/21 11:59:10;;;;;;;0.80;0.70;;;23.70;65.30;;;;;;4995783;28;20471;-75
2021/05/21 12:01:42;;;;;;;2.10;1.35;;;23.60;63.30;;;;;;5013142;28;20368;-84
2021/05/21 12:04:09;;;;;;;1.75;1.13;;;23.50;63.40;;;;;;5013054;28;20048;-76
2021/05/21 12:06:39;;;;;;;4.90;1.67;;;23.70;63.00;;;;;;5013336;28;20478;-84
2021/05/21 12:09:10;;;;;;;4.22;1.20;;;23.70;63.40;;;;;;5013021;28;20462;-77
2021/05/21 12:11:36;;;;;;;2.25;1.20;;;23.80;63.40;;;;;;5013164;28;20109;-74
2021/05/21 12:14:04;;;;;;;2.00;1.10;;;23.80;63.10;;;;;;5012992;28;20025;-76
2021/05/21 12:16:31;;;;;;;1.38;0.98;;;23.70;64.10;;;;;;5013034;28;20030;-84
2021/05/21 12:19:03;;;;;;;1.10;0.90;;;23.60;65.40;;;;;;5013045;28;20026;-85
2021/05/21 12:21:34;;;;;;;3.60;1.52;;;23.60;65.50;;;;;;5012917;28;20026;-76
2021/05/21 12:24:01;;;;;;;2.00;1.30;;;23.60;64.90;;;;;;5012771;28;20491;-75
2021/05/21 12:26:31;;;;;;;4.25;1.30;;;23.50;65.00;;;;;;5012414;28;20018;-75
2021/05/21 12:28:58;;;;;;;2.75;1.02;;;23.60;65.20;;;;;;5012815;28;20026;-77
2021/05/21 12:31:29;;;;;;;2.65;1.20;;;23.70;65.60;;;;;;5012854;28;20049;-85
2021/05/21 12:33:57;;;;;;;4.20;1.30;;;23.80;65.30;;;;;;5013212;28;20030;-85
2021/05/21 12:36:29;;;;;;;3.67;2.10;;;23.70;65.00;;;;;;5023790;28;20101;-84
2021/05/21 12:38:57;;;;;;;2.67;1.23;;;23.20;64.00;;;;;;5012731;28;20395;-83
2021/05/21 12:41:29;;;;;;;1.73;1.40;;;22.90;64.60;;;;;;4995213;28;20032;-76
2021/05/21 12:44:07;;;;;;;1.55;1.17;;;22.90;64.40;;;;;;5012764;28;20525;-79
2021/05/21 12:46:46;;;;;;;1.30;0.90;;;22.70;64.20;;;;;;5012653;28;20018;-76
2021/05/21 12:49:13;;;;;;;1.90;1.10;;;22.70;64.30;;;;;;5012774;28;20108;-86
2021/05/21 12:51:39;;;;;;;5.38;1.30;;;22.70;63.90;;;;;;5012560;28;20113;-80
2021/05/21 12:54:18;;;;;;;4.45;1.55;;;22.50;64.40;;;;;;5012668;28;20538;-76